createdAt,value
2023-05-12T00:02:20.026Z,3.25
2023-05-12T00:04:47.394Z,3.78
2023-05-12T00:07:14.848Z,3.83
2023-05-12T00:09:42.342Z,3.42
2023-05-12T00:12:10.438Z,3.05
2023-05-12T00:14:38.897Z,3.97
2023-05-12T00:17:07.250Z,4.30
2023-05-12T00:19:35.679Z,3.85
2023-05-12T00:22:03.570Z,3.75
2023-05-12T00:24:31.524Z,3.50
2023-05-12T00:26:59.364Z,4.25
2023-05-12T00:29:27.933Z,4.07
2023-05-12T00:31:56.531Z,4.20
2023-05-12T00:34:24.078Z,3.45
2023-05-12T00:36:51.608Z,3.70
2023-05-12T00:39:19.244Z,3.40
2023-05-12T00:41:48.014Z,3.80
2023-05-12T00:44:15.340Z,3.97
2023-05-12T00:46:43.154Z,3.42
2023-05-12T00:49:11.429Z,3.85
2023-05-12T00:51:40.025Z,3.90
2023-05-12T00:54:07.269Z,4.40
2023-05-12T00:56:39.553Z,4.20
2023-05-12T00:59:09.348Z,4.28
2023-05-12T01:01:40.836Z,4.85
2023-05-12T01:04:09.421Z,4.40
2023-05-12T01:09:22.242Z,4.75
2023-05-12T01:11:50.132Z,4.90
2023-05-12T01:14:19.612Z,5.35
2023-05-12T01:16:54.087Z,4.53
2023-05-12T01:19:46.185Z,4.20
2023-05-12T01:22:15.586Z,4.38
2023-05-12T01:24:58.237Z,4.22
2023-05-12T01:27:29.283Z,5.15
2023-05-12T01:30:05.839Z,3.65
2023-05-12T01:32:36.689Z,4.85
2023-05-12T01:35:05.941Z,4.32
2023-05-12T01:37:34.353Z,4.45
2023-05-12T01:40:05.110Z,6.32
2023-05-12T01:42:32.999Z,3.45
2023-05-12T01:45:00.343Z,4.18
2023-05-12T01:47:28.682Z,4.20
2023-05-12T01:50:03.765Z,4.05
2023-05-12T01:52:31.046Z,4.63
2023-05-12T01:54:58.318Z,4.43
2023-05-12T01:57:27.088Z,4.45
2023-05-12T01:59:58.160Z,3.95
2023-05-12T02:02:26.194Z,7.22
2023-05-12T02:04:55.938Z,5.00
2023-05-12T02:07:23.584Z,6.18
2023-05-12T02:09:51.180Z,4.50
2023-05-12T02:12:19.112Z,3.60
2023-05-12T02:14:46.701Z,3.80
2023-05-12T02:17:14.595Z,3.78
2023-05-12T02:19:42.141Z,4.32
2023-05-12T02:22:12.456Z,3.63
2023-05-12T02:24:40.515Z,4.57
2023-05-12T02:27:08.266Z,3.70
2023-05-12T02:29:36.440Z,4.60
2023-05-12T02:34:33.110Z,4.60
2023-05-12T02:37:00.664Z,4.20
2023-05-12T02:39:27.834Z,4.30
2023-05-12T02:41:55.054Z,3.47
2023-05-12T02:44:22.552Z,3.97
2023-05-12T02:46:50.508Z,4.33
2023-05-12T02:49:17.652Z,4.00
2023-05-12T02:51:48.355Z,3.78
2023-05-12T02:54:15.641Z,4.00
2023-05-12T02:56:42.817Z,3.80
2023-05-12T02:59:10.836Z,4.05
2023-05-12T03:01:39.035Z,4.03
2023-05-12T03:04:07.299Z,4.28
2023-05-12T03:06:34.892Z,3.67
2023-05-12T03:09:02.191Z,3.97
2023-05-12T03:11:29.839Z,4.47
2023-05-12T03:13:57.808Z,4.05
2023-05-12T03:16:25.423Z,4.50
2023-05-12T03:18:53.638Z,3.80
2023-05-12T03:21:21.016Z,3.70
2023-05-12T03:23:48.576Z,3.80
2023-05-12T03:26:17.178Z,3.72
2023-05-12T03:28:49.869Z,4.80
2023-05-12T03:31:17.196Z,4.25
2023-05-12T03:33:44.827Z,3.08
2023-05-12T03:36:12.117Z,3.47
2023-05-12T03:38:39.630Z,3.55
2023-05-12T03:41:07.715Z,3.03
2023-05-12T03:43:36.058Z,3.33
2023-05-12T03:46:04.482Z,3.28
2023-05-12T03:48:32.459Z,3.57
2023-05-12T03:50:59.737Z,3.55
2023-05-12T03:53:28.583Z,3.33
2023-05-12T03:55:57.441Z,3.20
2023-05-12T03:58:25.312Z,2.90
2023-05-12T04:00:56.693Z,2.92
2023-05-12T04:03:24.176Z,3.22
2023-05-12T04:05:58.058Z,3.30
2023-05-12T04:08:25.206Z,3.53
2023-05-12T04:10:57.773Z,3.10
2023-05-12T04:13:27.414Z,3.13
2023-05-12T04:15:59.135Z,3.05
2023-05-12T04:18:28.057Z,3.25
2023-05-12T04:20:56.114Z,3.55
2023-05-12T04:23:24.225Z,3.60
2023-05-12T04:25:52.373Z,3.20
2023-05-12T04:28:20.163Z,3.20
2023-05-12T04:30:48.346Z,3.88
2023-05-12T04:33:15.697Z,4.05
2023-05-12T04:35:44.381Z,3.53
2023-05-12T04:38:14.420Z,3.03
2023-05-12T04:40:42.105Z,3.03
2023-05-12T04:43:59.813Z,3.72
2023-05-12T04:45:58.594Z,3.33
2023-05-12T04:48:29.172Z,3.40
2023-05-12T04:51:00.342Z,3.60
2023-05-12T04:53:28.075Z,3.78
2023-05-12T04:55:56.565Z,4.13
2023-05-12T04:58:24.971Z,3.95
2023-05-12T05:00:53.976Z,3.65
2023-05-12T05:03:32.114Z,3.50
2023-05-12T05:05:59.491Z,3.85
2023-05-12T05:08:27.685Z,3.57
2023-05-12T05:12:10.183Z,3.92
2023-05-12T05:14:37.757Z,3.38
2023-05-12T05:18:23.862Z,3.55
2023-05-12T05:22:08.063Z,3.67
2023-05-12T05:24:35.896Z,3.80
2023-05-12T05:27:04.299Z,4.00
2023-05-12T05:29:32.091Z,3.55
2023-05-12T05:31:59.685Z,4.05
2023-05-12T05:35:42.980Z,3.65
2023-05-12T05:39:30.820Z,3.50
2023-05-12T05:43:13.638Z,4.78
2023-05-12T05:46:56.435Z,3.90
2023-05-12T05:50:41.700Z,4.38
2023-05-12T05:54:25.302Z,3.83
2023-05-12T05:58:08.701Z,4.10
2023-05-12T06:00:36.500Z,4.03
2023-05-12T06:03:04.575Z,4.57
2023-05-12T06:06:47.807Z,5.20
2023-05-12T06:10:02.476Z,4.40
2023-05-12T06:12:30.442Z,4.63
2023-05-12T06:17:26.294Z,4.47
2023-05-12T06:19:53.492Z,4.32
2023-05-12T06:22:21.399Z,4.38
2023-05-12T06:24:49.466Z,4.17
2023-05-12T06:27:17.216Z,3.78
2023-05-12T06:29:47.506Z,4.55
2023-05-12T06:32:15.501Z,3.88
2023-05-12T06:34:43.553Z,4.30
2023-05-12T06:37:11.461Z,4.13
2023-05-12T06:39:38.703Z,4.65
2023-05-12T06:42:06.521Z,4.57
2023-05-12T06:44:42.474Z,3.97
2023-05-12T06:47:09.949Z,4.43
2023-05-12T06:49:38.559Z,4.13
2023-05-12T06:52:07.276Z,4.43
2023-05-12T06:54:35.027Z,4.28
2023-05-12T06:57:02.661Z,5.30
2023-05-12T06:59:31.148Z,5.43
2023-05-12T07:02:00.503Z,5.00
2023-05-12T07:04:28.238Z,5.30
2023-05-12T07:06:56.601Z,4.95
2023-05-12T07:09:23.912Z,6.35
2023-05-12T07:11:51.519Z,6.00
2023-05-12T07:14:18.949Z,5.80
2023-05-12T07:16:50.853Z,6.13
2023-05-12T07:19:18.213Z,5.72
2023-05-12T07:21:46.146Z,5.63
2023-05-12T07:24:13.984Z,5.30
2023-05-12T07:26:41.713Z,5.93
2023-05-12T07:29:13.657Z,4.82
2023-05-12T07:31:41.393Z,5.30
2023-05-12T07:34:08.905Z,5.60
2023-05-12T07:36:38.243Z,5.10
2023-05-12T07:39:06.208Z,4.05
2023-05-12T07:41:34.610Z,4.03
2023-05-12T07:44:04.802Z,4.03
2023-05-12T07:46:32.240Z,4.25
2023-05-12T07:48:59.450Z,4.10
2023-05-12T07:51:26.826Z,4.00
2023-05-12T07:53:55.287Z,3.60
2023-05-12T07:56:29.374Z,3.42
2023-05-12T07:59:02.395Z,3.90
2023-05-12T08:01:30.948Z,3.58
2023-05-12T08:03:58.438Z,3.50
2023-05-12T08:06:26.517Z,3.30
2023-05-12T08:08:56.240Z,3.13
2023-05-12T08:11:26.526Z,3.15
2023-05-12T08:13:54.026Z,2.72
2023-05-12T08:16:21.320Z,2.50
2023-05-12T08:18:48.743Z,2.65
2023-05-12T08:21:15.892Z,2.58
2023-05-12T08:23:43.646Z,3.25
2023-05-12T08:26:11.558Z,3.15
2023-05-12T08:28:39.207Z,2.42
2023-05-12T08:31:07.371Z,2.42
2023-05-12T08:33:36.821Z,2.85
2023-05-12T08:38:33.482Z,2.50
2023-05-12T08:41:37.044Z,3.08
2023-05-12T08:44:06.482Z,2.40
2023-05-12T08:46:35.169Z,2.40
2023-05-12T08:49:06.514Z,2.08
2023-05-12T08:51:39.581Z,2.00
2023-05-12T08:54:12.471Z,2.00
2023-05-12T08:59:11.878Z,1.88
2023-05-12T09:01:42.962Z,2.40
2023-05-12T09:04:17.585Z,2.85
2023-05-12T09:06:49.397Z,3.03
2023-05-12T09:09:18.067Z,3.05
2023-05-12T09:11:48.524Z,3.03
2023-05-12T09:14:25.680Z,2.50
2023-05-12T09:17:04.995Z,2.50
2023-05-12T09:19:34.400Z,2.95
2023-05-12T09:22:02.474Z,2.90
2023-05-12T09:24:39.599Z,3.95
2023-05-12T09:27:08.202Z,2.70
2023-05-12T09:29:45.059Z,2.58
2023-05-12T09:32:18.925Z,2.60
2023-05-12T09:34:46.317Z,2.40
2023-05-12T09:37:15.340Z,2.00
2023-05-12T09:39:44.280Z,2.28
2023-05-12T09:42:12.990Z,1.80
2023-05-12T09:44:41.276Z,1.67
2023-05-12T09:47:10.383Z,1.60
2023-05-12T09:49:38.197Z,1.73
2023-05-12T09:52:06.156Z,1.50
2023-05-12T09:54:34.613Z,1.58
2023-05-12T09:57:07.272Z,1.60
2023-05-12T09:59:38.659Z,1.20
2023-05-12T10:02:14.068Z,1.23
2023-05-12T10:04:58.622Z,1.05
2023-05-12T10:07:28.227Z,0.93
2023-05-12T10:10:01.501Z,1.27
2023-05-12T10:12:29.815Z,1.73
2023-05-12T10:14:58.752Z,1.48
2023-05-12T10:17:28.171Z,1.67
2023-05-12T10:19:57.335Z,1.83
2023-05-12T10:22:28.980Z,2.70
2023-05-12T10:24:57.602Z,1.35
2023-05-12T10:27:25.959Z,1.30
2023-05-12T10:29:55.420Z,1.40
2023-05-12T10:32:23.013Z,1.42
2023-05-12T10:34:50.911Z,1.30
2023-05-12T10:37:18.534Z,1.42
2023-05-12T10:39:52.953Z,1.20
2023-05-12T10:42:26.151Z,1.73
2023-05-12T10:44:56.705Z,1.90
2023-05-12T10:47:37.550Z,2.08
2023-05-12T10:50:05.977Z,2.45
2023-05-12T10:52:33.610Z,3.03
2023-05-12T10:55:04.384Z,2.78
2023-05-12T10:57:33.722Z,2.38
2023-05-12T11:00:03.638Z,2.63
2023-05-12T11:02:34.968Z,2.60
2023-05-12T11:05:17.329Z,2.97
2023-05-12T11:07:50.495Z,2.63
2023-05-12T11:10:19.645Z,2.70
2023-05-12T11:12:55.168Z,2.90
2023-05-12T11:15:23.488Z,2.20
2023-05-12T11:17:51.260Z,2.13
2023-05-12T11:20:28.123Z,1.80
2023-05-12T11:22:57.205Z,1.90
2023-05-12T11:25:30.641Z,2.25
2023-05-12T11:27:58.298Z,1.77
2023-05-12T11:30:26.095Z,1.60
2023-05-12T11:33:04.051Z,1.70
2023-05-12T11:35:32.619Z,1.60
2023-05-12T11:38:00.635Z,1.40
2023-05-12T11:40:28.752Z,1.77
2023-05-12T11:42:56.517Z,1.40
2023-05-12T11:45:34.313Z,1.38
2023-05-12T11:48:14.317Z,1.60
2023-05-12T11:50:47.534Z,2.10
2023-05-12T11:53:18.865Z,1.60
2023-05-12T11:55:55.115Z,1.50
2023-05-12T11:58:27.338Z,1.30
2023-05-12T12:00:55.588Z,0.90
2023-05-12T12:03:25.315Z,0.83
2023-05-12T12:06:03.412Z,0.95
2023-05-12T12:08:31.023Z,0.88
2023-05-12T12:11:00.421Z,0.82
2023-05-12T12:13:29.382Z,1.60
2023-05-12T12:15:57.186Z,0.82
2023-05-12T12:18:25.033Z,0.70
2023-05-12T12:20:52.323Z,0.77
2023-05-12T12:23:19.975Z,0.60
2023-05-12T12:25:47.748Z,0.70
2023-05-12T12:28:15.292Z,0.45
2023-05-12T12:30:43.293Z,0.50
2023-05-12T12:33:11.117Z,0.57
2023-05-12T12:35:38.772Z,0.80
2023-05-12T12:38:06.782Z,0.60
2023-05-12T12:40:34.194Z,0.98
2023-05-12T12:43:01.735Z,0.52
2023-05-12T12:45:29.034Z,0.90
2023-05-12T12:47:56.441Z,0.80
2023-05-12T12:50:25.122Z,0.90
2023-05-12T12:52:53.860Z,0.90
2023-05-12T12:55:21.902Z,0.80
2023-05-12T12:57:49.158Z,1.05
2023-05-12T13:00:17.369Z,1.20
2023-05-12T13:02:45.597Z,1.40
2023-05-12T13:05:13.244Z,1.80
2023-05-12T13:07:40.469Z,1.92
2023-05-12T13:10:34.582Z,1.60
2023-05-12T13:13:04.865Z,1.58
2023-05-12T13:15:35.032Z,1.50
2023-05-12T13:18:02.852Z,2.00
2023-05-12T13:20:30.165Z,2.00
2023-05-12T13:22:57.702Z,1.80
2023-05-12T13:25:27.552Z,2.00
2023-05-12T13:27:55.197Z,2.13
2023-05-12T13:30:24.972Z,1.58
2023-05-12T13:32:52.511Z,1.83
2023-05-12T13:35:20.242Z,1.95
2023-05-12T13:37:48.372Z,1.80
2023-05-12T13:40:15.788Z,1.60
2023-05-12T13:42:42.893Z,1.70
2023-05-12T13:45:11.149Z,2.00
2023-05-12T13:47:38.365Z,2.30
2023-05-12T13:50:07.873Z,2.10
2023-05-12T13:52:35.346Z,2.20
2023-05-12T13:55:03.142Z,2.20
2023-05-12T13:57:30.460Z,2.33
2023-05-12T13:59:58.697Z,2.63
2023-05-12T14:02:27.043Z,2.75
2023-05-12T14:04:56.437Z,2.72
2023-05-12T14:07:23.735Z,2.92
2023-05-12T14:09:51.088Z,2.78
2023-05-12T14:12:18.279Z,2.70
2023-05-12T14:14:49.856Z,2.55
2023-05-12T14:17:18.694Z,2.60
2023-05-12T14:19:46.422Z,2.60
2023-05-12T14:22:25.414Z,2.60
2023-05-12T14:25:03.032Z,2.33
2023-05-12T14:27:30.214Z,2.63
2023-05-12T14:29:57.655Z,2.40
2023-05-12T14:32:25.436Z,2.50
2023-05-12T14:34:57.877Z,3.03
2023-05-12T14:37:25.450Z,2.53
2023-05-12T14:39:55.122Z,3.30
2023-05-12T14:42:23.672Z,2.78
2023-05-12T14:44:51.054Z,3.35
2023-05-12T14:47:23.194Z,4.13
2023-05-12T14:49:50.584Z,2.60
2023-05-12T14:52:18.442Z,2.30
2023-05-12T14:54:45.850Z,2.28
2023-05-12T14:57:13.630Z,2.08
2023-05-12T14:59:41.293Z,2.05
2023-05-12T15:02:08.861Z,2.08
2023-05-12T15:04:36.359Z,2.47
2023-05-12T15:07:04.962Z,2.38
2023-05-12T15:09:32.056Z,2.70
2023-05-12T15:11:59.176Z,2.72
2023-05-12T15:14:26.314Z,2.58
2023-05-12T15:16:53.747Z,2.67
2023-05-12T15:19:21.351Z,3.00
2023-05-12T15:21:49.483Z,2.65
2023-05-12T15:24:16.909Z,2.28
2023-05-12T15:26:44.061Z,2.28
2023-05-12T15:29:11.771Z,2.55
2023-05-12T15:31:39.276Z,2.28
2023-05-12T15:34:07.213Z,2.40
2023-05-12T15:36:35.118Z,1.98
2023-05-12T15:39:03.226Z,1.90
2023-05-12T15:41:30.579Z,2.00
2023-05-12T15:43:57.823Z,1.95
2023-05-12T15:46:25.049Z,2.10
2023-05-12T15:48:52.238Z,1.80
2023-05-12T15:51:19.399Z,2.10
2023-05-12T15:53:46.761Z,2.15
2023-05-12T15:56:13.937Z,2.30
2023-05-12T15:58:41.076Z,2.25
2023-05-12T16:01:08.244Z,2.28
2023-05-12T16:03:35.460Z,2.10
2023-05-12T16:06:03.188Z,2.35
2023-05-12T16:08:30.352Z,2.03
2023-05-12T16:10:57.624Z,2.10
2023-05-12T16:13:24.877Z,2.15
2023-05-12T16:15:53.194Z,2.00
2023-05-12T16:18:20.655Z,2.63
2023-05-12T16:20:48.167Z,2.20
2023-05-12T16:23:17.280Z,2.03
2023-05-12T16:25:46.061Z,2.20
2023-05-12T16:28:14.477Z,2.30
2023-05-12T16:30:41.636Z,2.00
2023-05-12T16:33:08.939Z,2.30
2023-05-12T16:35:36.398Z,2.15
2023-05-12T16:38:04.116Z,2.33
2023-05-12T16:40:31.652Z,2.30
2023-05-12T16:42:58.811Z,2.90
2023-05-12T16:45:26.008Z,2.97
2023-05-12T16:47:56.114Z,4.10
2023-05-12T16:50:23.271Z,3.20
2023-05-12T16:52:51.758Z,3.72
2023-05-12T16:55:19.429Z,3.67
2023-05-12T16:57:46.645Z,4.55
2023-05-12T17:00:15.407Z,1.90
2023-05-12T17:02:42.810Z,2.15
2023-05-12T17:05:10.326Z,2.08
2023-05-12T17:07:37.855Z,2.05
2023-05-12T17:10:05.595Z,1.65
2023-05-12T17:12:32.722Z,1.95
2023-05-12T17:15:07.584Z,2.00
2023-05-12T17:17:36.185Z,1.98
2023-05-12T17:20:04.176Z,2.38
2023-05-12T17:22:32.451Z,3.80
2023-05-12T17:24:59.574Z,3.00
2023-05-12T17:27:33.386Z,2.30
2023-05-12T17:30:04.552Z,2.17
2023-05-12T17:32:32.704Z,2.15
2023-05-12T17:35:09.420Z,2.30
2023-05-12T17:37:38.261Z,2.55
2023-05-12T17:40:07.779Z,2.40
2023-05-12T17:42:35.400Z,2.67
2023-05-12T17:45:03.276Z,2.67
2023-05-12T17:47:31.066Z,2.53
2023-05-12T17:49:58.449Z,2.22
2023-05-12T17:52:25.768Z,2.72
2023-05-12T17:54:57.192Z,2.88
2023-05-12T17:57:24.564Z,2.65
2023-05-12T17:59:51.953Z,2.80
2023-05-12T18:02:19.707Z,2.72
2023-05-12T18:04:47.073Z,2.75
2023-05-12T18:07:14.696Z,3.03
2023-05-12T18:09:41.868Z,2.72
2023-05-12T18:12:09.341Z,3.10
2023-05-12T18:14:36.489Z,3.10
2023-05-12T18:17:03.790Z,2.80
2023-05-12T18:19:31.330Z,3.15
2023-05-12T18:21:58.664Z,2.95
2023-05-12T18:24:26.266Z,2.58
2023-05-12T18:26:53.492Z,2.42
2023-05-12T18:29:20.734Z,2.67
2023-05-12T18:31:48.090Z,3.00
2023-05-12T18:34:15.407Z,2.60
2023-05-12T18:36:42.729Z,2.22
2023-05-12T18:39:10.606Z,2.65
2023-05-12T18:41:38.854Z,2.53
2023-05-12T18:44:08.515Z,2.00
2023-05-12T18:46:36.098Z,2.00
2023-05-12T18:49:03.756Z,2.10
2023-05-12T18:51:30.916Z,1.85
2023-05-12T18:53:58.278Z,2.10
2023-05-12T18:56:25.693Z,1.90
2023-05-12T18:58:52.889Z,2.10
2023-05-12T19:01:20.483Z,2.10
2023-05-12T19:03:48.582Z,3.70
2023-05-12T19:06:15.950Z,2.03
2023-05-12T19:08:43.073Z,2.13
2023-05-12T19:11:10.321Z,1.75
2023-05-12T19:13:42.262Z,1.83
2023-05-12T19:16:09.407Z,1.90
2023-05-12T19:18:36.672Z,1.90
2023-05-12T19:21:03.965Z,1.70
2023-05-12T19:23:31.288Z,1.50
2023-05-12T19:26:00.397Z,2.53
2023-05-12T19:28:28.420Z,4.07
2023-05-12T19:30:55.962Z,1.60
2023-05-12T19:33:23.222Z,2.00
2023-05-12T19:35:50.442Z,1.60
2023-05-12T19:38:18.596Z,1.77
2023-05-12T19:40:45.851Z,1.93
2023-05-12T19:43:13.158Z,2.42
2023-05-12T19:45:40.491Z,2.60
2023-05-12T19:48:08.113Z,2.92
2023-05-12T19:50:37.514Z,4.53
2023-05-12T19:53:04.694Z,4.32
2023-05-12T19:55:31.918Z,1.60
2023-05-12T19:57:59.533Z,1.70
2023-05-12T20:00:26.777Z,2.15
2023-05-12T20:02:54.209Z,2.15
2023-05-12T20:05:21.590Z,1.65
2023-05-12T20:07:49.062Z,4.65
2023-05-12T20:10:17.066Z,2.00
2023-05-12T20:12:44.561Z,1.23
2023-05-12T20:15:12.021Z,1.90
2023-05-12T20:17:39.240Z,1.25
2023-05-12T20:20:07.984Z,1.60
2023-05-12T20:22:35.315Z,1.80
2023-05-12T20:25:04.726Z,1.90
2023-05-12T20:27:33.627Z,1.95
2023-05-12T20:30:01.307Z,2.00
2023-05-12T20:32:28.697Z,1.90
2023-05-12T20:34:55.811Z,2.75
2023-05-12T20:37:22.913Z,2.65
2023-05-12T20:39:50.108Z,3.33
2023-05-12T20:42:17.419Z,2.58
2023-05-12T20:44:44.621Z,3.97
2023-05-12T20:47:12.936Z,3.65
2023-05-12T20:49:40.365Z,2.90
2023-05-12T20:52:07.849Z,4.25
2023-05-12T20:54:35.157Z,3.00
2023-05-12T20:57:02.292Z,2.63
2023-05-12T20:59:29.414Z,4.65
2023-05-12T21:02:27.993Z,3.47
2023-05-12T21:04:56.007Z,1.35
2023-05-12T21:07:23.304Z,2.25
2023-05-12T21:09:50.434Z,1.83
2023-05-12T21:12:17.679Z,4.50
2023-05-12T21:14:45.511Z,2.05
2023-05-12T21:17:12.998Z,2.50
2023-05-12T21:19:41.522Z,2.10
2023-05-12T21:22:10.536Z,1.52
2023-05-12T21:27:08.203Z,2.83
2023-05-12T21:29:36.340Z,2.03
2023-05-12T21:32:04.185Z,3.40
2023-05-12T21:34:33.630Z,2.60
2023-05-12T21:37:00.964Z,1.58
2023-05-12T21:39:28.314Z,1.77
2023-05-12T21:41:55.718Z,3.15
2023-05-12T21:44:22.842Z,2.60
2023-05-12T21:46:50.207Z,2.50
2023-05-12T21:49:17.424Z,2.20
2023-05-12T21:51:44.613Z,1.90
2023-05-12T21:54:12.345Z,3.42
2023-05-12T21:56:39.461Z,2.45
2023-05-12T21:59:06.637Z,1.70
2023-05-12T22:01:33.851Z,1.63
2023-05-12T22:04:01.229Z,1.65
2023-05-12T22:06:28.472Z,1.98
2023-05-12T22:08:55.797Z,2.22
2023-05-12T22:11:24.140Z,3.33
2023-05-12T22:13:51.373Z,3.63
2023-05-12T22:16:21.761Z,4.82
2023-05-12T22:18:53.030Z,2.53
2023-05-12T22:21:20.476Z,7.22
2023-05-12T22:23:47.652Z,3.30
2023-05-12T22:26:15.767Z,2.42
2023-05-12T22:28:43.049Z,3.00
2023-05-12T22:31:10.280Z,2.00
2023-05-12T22:33:37.401Z,2.17
2023-05-12T22:36:04.906Z,2.63
2023-05-12T22:38:32.088Z,3.50
2023-05-12T22:40:59.301Z,2.25
2023-05-12T22:43:26.443Z,2.60
2023-05-12T22:45:55.931Z,2.45
2023-05-12T22:48:24.101Z,2.25
2023-05-12T22:50:54.612Z,2.35
2023-05-12T22:53:21.743Z,2.13
2023-05-12T22:55:48.876Z,2.70
2023-05-12T22:58:16.155Z,2.80
2023-05-12T23:00:43.362Z,2.13
2023-05-12T23:03:11.664Z,2.13
2023-05-12T23:05:38.863Z,2.57
2023-05-12T23:08:06.046Z,2.20
2023-05-12T23:10:33.200Z,2.15
2023-05-12T23:13:00.299Z,2.35
2023-05-12T23:15:27.484Z,2.70
2023-05-12T23:17:55.650Z,2.50
2023-05-12T23:20:23.240Z,2.90
2023-05-12T23:22:50.883Z,3.00
2023-05-12T23:25:18.153Z,2.55
2023-05-12T23:27:45.697Z,2.90
2023-05-12T23:30:15.759Z,2.65
2023-05-12T23:32:43.024Z,2.55
2023-05-12T23:35:10.438Z,2.85
2023-05-12T23:37:37.577Z,2.63
2023-05-12T23:40:06.083Z,2.70
2023-05-12T23:42:33.179Z,2.92
2023-05-12T23:45:00.421Z,2.38
2023-05-12T23:47:27.550Z,2.85
2023-05-12T23:49:54.692Z,2.17
2023-05-12T23:52:21.787Z,2.38
2023-05-12T23:54:48.918Z,2.47
2023-05-12T23:57:16.015Z,2.75
2023-05-12T23:59:43.088Z,2.50
